sensor_id;sensor_type;location;lat;lon;timestamp;P1;durP1;ratioP1;P2;durP2;ratioP2
80111;SDS011;69421;51.062;3.728;2023-06-22T00:01:02;7.75;;;3.72;;
80111;SDS011;69421;51.062;3.728;2023-06-22T00:03:28;6.07;;;4.00;;
80111;SDS011;69421;51.062;3.728;2023-06-22T00:05:54;9.02;;;5.00;;
80111;SDS011;69421;51.062;3.728;2023-06-22T00:08:19;8.60;;;4.30;;
80111;SDS011;69421;51.062;3.728;2023-06-22T00:10:45;8.27;;;3.92;;
80111;SDS011;69421;51.062;3.728;2023-06-22T00:13:11;9.43;;;4.25;;
80111;SDS011;69421;51.062;3.728;2023-06-22T00:15:38;8.98;;;5.10;;
80111;SDS011;69421;51.062;3.728;2023-06-22T00:18:05;9.30;;;4.63;;
80111;SDS011;69421;51.062;3.728;2023-06-22T00:20:31;8.85;;;4.47;;
80111;SDS011;69421;51.062;3.728;2023-06-22T00:22:57;9.88;;;4.60;;
80111;SDS011;69421;51.062;3.728;2023-06-22T00:25:23;11.35;;;5.50;;
80111;SDS011;69421;51.062;3.728;2023-06-22T00:27:49;9.10;;;5.22;;
80111;SDS011;69421;51.062;3.728;2023-06-22T00:30:15;10.35;;;6.05;;
80111;SDS011;69421;51.062;3.728;2023-06-22T00:32:42;9.88;;;6.30;;
80111;SDS011;69421;51.062;3.728;2023-06-22T00:35:08;8.38;;;5.43;;
80111;SDS011;69421;51.062;3.728;2023-06-22T00:37:35;10.93;;;6.75;;
80111;SDS011;69421;51.062;3.728;2023-06-22T00:40:01;8.38;;;6.65;;
80111;SDS011;69421;51.062;3.728;2023-06-22T00:42:27;10.82;;;5.97;;
80111;SDS011;69421;51.062;3.728;2023-06-22T00:44:53;10.95;;;5.53;;
80111;SDS011;69421;51.062;3.728;2023-06-22T00:47:19;8.60;;;5.57;;
80111;SDS011;69421;51.062;3.728;2023-06-22T00:49:45;8.55;;;5.10;;
80111;SDS011;69421;51.062;3.728;2023-06-22T00:52:13;10.05;;;5.15;;
80111;SDS011;69421;51.062;3.728;2023-06-22T00:54:41;8.02;;;4.32;;
80111;SDS011;69421;51.062;3.728;2023-06-22T00:57:13;10.60;;;4.75;;
80111;SDS011;69421;51.062;3.728;2023-06-22T00:59:44;7.65;;;5.22;;
80111;SDS011;69421;51.062;3.728;2023-06-22T01:02:10;8.45;;;4.80;;
80111;SDS011;69421;51.062;3.728;2023-06-22T01:04:37;8.15;;;5.45;;
80111;SDS011;69421;51.062;3.728;2023-06-22T01:09:37;6.68;;;4.28;;
80111;SDS011;69421;51.062;3.728;2023-06-22T01:12:09;9.85;;;5.10;;
80111;SDS011;69421;51.062;3.728;2023-06-22T01:14:43;4.90;;;2.90;;
80111;SDS011;69421;51.062;3.728;2023-06-22T01:17:13;4.95;;;3.15;;
80111;SDS011;69421;51.062;3.728;2023-06-22T01:22:26;5.38;;;3.03;;
80111;SDS011;69421;51.062;3.728;2023-06-22T01:30:15;8.15;;;3.40;;
80111;SDS011;69421;51.062;3.728;2023-06-22T01:32:42;7.28;;;3.05;;
80111;SDS011;69421;51.062;3.728;2023-06-22T01:35:08;8.02;;;2.92;;
80111;SDS011;69421;51.062;3.728;2023-06-22T01:37:34;5.25;;;3.20;;
80111;SDS011;69421;51.062;3.728;2023-06-22T01:40:01;4.72;;;3.15;;
80111;SDS011;69421;51.062;3.728;2023-06-22T01:42:30;3.85;;;2.55;;
80111;SDS011;69421;51.062;3.728;2023-06-22T01:44:56;4.95;;;2.90;;
80111;SDS011;69421;51.062;3.728;2023-06-22T01:47:22;4.70;;;3.17;;
80111;SDS011;69421;51.062;3.728;2023-06-22T01:49:48;4.25;;;3.03;;
80111;SDS011;69421;51.062;3.728;2023-06-22T01:52:16;5.28;;;2.45;;
80111;SDS011;69421;51.062;3.728;2023-06-22T01:54:43;5.68;;;2.97;;
80111;SDS011;69421;51.062;3.728;2023-06-22T01:57:08;4.63;;;3.50;;
80111;SDS011;69421;51.062;3.728;2023-06-22T01:59:39;4.72;;;2.33;;
80111;SDS011;69421;51.062;3.728;2023-06-22T02:02:24;4.88;;;3.30;;
80111;SDS011;69421;51.062;3.728;2023-06-22T02:04:59;5.65;;;3.15;;
80111;SDS011;69421;51.062;3.728;2023-06-22T02:07:44;4.15;;;2.72;;
80111;SDS011;69421;51.062;3.728;2023-06-22T02:10:11;5.60;;;2.63;;
80111;SDS011;69421;51.062;3.728;2023-06-22T02:12:39;4.25;;;2.33;;
80111;SDS011;69421;51.062;3.728;2023-06-22T02:15:07;4.32;;;2.65;;
80111;SDS011;69421;51.062;3.728;2023-06-22T02:17:34;5.63;;;2.22;;
80111;SDS011;69421;51.062;3.728;2023-06-22T02:20:01;3.42;;;2.17;;
80111;SDS011;69421;51.062;3.728;2023-06-22T02:22:29;3.83;;;2.40;;
80111;SDS011;69421;51.062;3.728;2023-06-22T02:24:55;5.30;;;2.42;;
80111;SDS011;69421;51.062;3.728;2023-06-22T02:27:21;4.85;;;2.67;;
80111;SDS011;69421;51.062;3.728;2023-06-22T02:29:47;3.67;;;2.67;;
80111;SDS011;69421;51.062;3.728;2023-06-22T02:32:12;3.40;;;2.10;;
80111;SDS011;69421;51.062;3.728;2023-06-22T02:34:38;4.30;;;2.35;;
80111;SDS011;69421;51.062;3.728;2023-06-22T02:37:04;5.25;;;2.58;;
80111;SDS011;69421;51.062;3.728;2023-06-22T02:39:30;6.22;;;2.90;;
80111;SDS011;69421;51.062;3.728;2023-06-22T02:41:55;5.05;;;3.40;;
80111;SDS011;69421;51.062;3.728;2023-06-22T02:44:21;5.72;;;3.72;;
80111;SDS011;69421;51.062;3.728;2023-06-22T02:46:47;6.85;;;4.60;;
80111;SDS011;69421;51.062;3.728;2023-06-22T02:49:13;8.65;;;5.97;;
80111;SDS011;69421;51.062;3.728;2023-06-22T02:51:39;8.07;;;5.32;;
80111;SDS011;69421;51.062;3.728;2023-06-22T02:54:06;5.65;;;4.05;;
80111;SDS011;69421;51.062;3.728;2023-06-22T02:56:32;8.50;;;3.72;;
80111;SDS011;69421;51.062;3.728;2023-06-22T02:58:58;7.63;;;4.43;;
80111;SDS011;69421;51.062;3.728;2023-06-22T03:01:26;9.43;;;5.13;;
80111;SDS011;69421;51.062;3.728;2023-06-22T03:03:53;6.55;;;4.07;;
80111;SDS011;69421;51.062;3.728;2023-06-22T03:06:20;7.75;;;4.43;;
80111;SDS011;69421;51.062;3.728;2023-06-22T03:13:41;7.97;;;4.23;;
80111;SDS011;69421;51.062;3.728;2023-06-22T03:16:08;8.52;;;4.50;;
80111;SDS011;69421;51.062;3.728;2023-06-22T03:18:33;14.95;;;5.60;;
80111;SDS011;69421;51.062;3.728;2023-06-22T03:20:59;10.27;;;5.03;;
80111;SDS011;69421;51.062;3.728;2023-06-22T03:23:27;11.18;;;6.20;;
80111;SDS011;69421;51.062;3.728;2023-06-22T03:25:52;11.23;;;5.50;;
80111;SDS011;69421;51.062;3.728;2023-06-22T03:28:20;9.45;;;5.38;;
80111;SDS011;69421;51.062;3.728;2023-06-22T03:30:46;11.27;;;6.15;;
80111;SDS011;69421;51.062;3.728;2023-06-22T03:33:12;11.65;;;5.50;;
80111;SDS011;69421;51.062;3.728;2023-06-22T03:35:37;9.90;;;5.70;;
80111;SDS011;69421;51.062;3.728;2023-06-22T03:38:03;12.02;;;6.38;;
80111;SDS011;69421;51.062;3.728;2023-06-22T03:40:29;11.45;;;5.70;;
80111;SDS011;69421;51.062;3.728;2023-06-22T03:42:55;11.23;;;6.18;;
80111;SDS011;69421;51.062;3.728;2023-06-22T03:45:20;12.65;;;5.45;;
80111;SDS011;69421;51.062;3.728;2023-06-22T03:47:46;10.43;;;5.25;;
80111;SDS011;69421;51.062;3.728;2023-06-22T03:50:12;10.88;;;5.32;;
80111;SDS011;69421;51.062;3.728;2023-06-22T03:52:38;10.20;;;6.18;;
80111;SDS011;69421;51.062;3.728;2023-06-22T03:55:05;8.20;;;5.40;;
80111;SDS011;69421;51.062;3.728;2023-06-22T03:57:31;10.18;;;5.45;;
80111;SDS011;69421;51.062;3.728;2023-06-22T03:59:57;9.25;;;4.78;;
80111;SDS011;69421;51.062;3.728;2023-06-22T04:02:23;8.15;;;5.68;;
80111;SDS011;69421;51.062;3.728;2023-06-22T04:04:49;10.05;;;5.68;;
80111;SDS011;69421;51.062;3.728;2023-06-22T04:07:15;9.23;;;4.70;;
80111;SDS011;69421;51.062;3.728;2023-06-22T04:09:40;11.20;;;6.03;;
80111;SDS011;69421;51.062;3.728;2023-06-22T04:12:06;20.65;;;6.03;;
80111;SDS011;69421;51.062;3.728;2023-06-22T04:14:32;12.00;;;5.75;;
80111;SDS011;69421;51.062;3.728;2023-06-22T04:16:58;10.95;;;6.70;;
80111;SDS011;69421;51.062;3.728;2023-06-22T04:19:23;10.98;;;6.63;;
80111;SDS011;69421;51.062;3.728;2023-06-22T04:21:49;11.25;;;6.88;;
80111;SDS011;69421;51.062;3.728;2023-06-22T04:24:15;12.30;;;6.78;;
80111;SDS011;69421;51.062;3.728;2023-06-22T04:26:40;10.80;;;6.30;;
80111;SDS011;69421;51.062;3.728;2023-06-22T04:29:07;12.85;;;7.10;;
80111;SDS011;69421;51.062;3.728;2023-06-22T04:31:36;15.55;;;7.97;;
80111;SDS011;69421;51.062;3.728;2023-06-22T04:34:02;12.98;;;7.50;;
80111;SDS011;69421;51.062;3.728;2023-06-22T04:36:35;11.15;;;7.13;;
80111;SDS011;69421;51.062;3.728;2023-06-22T04:39:04;11.85;;;7.60;;
80111;SDS011;69421;51.062;3.728;2023-06-22T04:41:30;12.27;;;7.82;;
80111;SDS011;69421;51.062;3.728;2023-06-22T04:44:07;13.57;;;8.52;;
80111;SDS011;69421;51.062;3.728;2023-06-22T04:46:37;18.15;;;9.57;;
80111;SDS011;69421;51.062;3.728;2023-06-22T04:51:39;16.85;;;9.50;;
80111;SDS011;69421;51.062;3.728;2023-06-22T04:54:06;18.38;;;10.80;;
80111;SDS011;69421;51.062;3.728;2023-06-22T04:56:32;17.30;;;11.27;;
80111;SDS011;69421;51.062;3.728;2023-06-22T04:58:58;17.90;;;12.95;;
80111;SDS011;69421;51.062;3.728;2023-06-22T05:01:24;19.58;;;13.50;;
80111;SDS011;69421;51.062;3.728;2023-06-22T05:03:50;20.95;;;14.60;;
80111;SDS011;69421;51.062;3.728;2023-06-22T05:06:20;20.00;;;13.88;;
80111;SDS011;69421;51.062;3.728;2023-06-22T05:08:47;18.30;;;12.73;;
80111;SDS011;69421;51.062;3.728;2023-06-22T05:11:12;17.92;;;12.80;;
80111;SDS011;69421;51.062;3.728;2023-06-22T05:13:38;20.98;;;11.73;;
80111;SDS011;69421;51.062;3.728;2023-06-22T05:16:04;18.17;;;10.88;;
80111;SDS011;69421;51.062;3.728;2023-06-22T05:18:31;18.10;;;11.07;;
80111;SDS011;69421;51.062;3.728;2023-06-22T05:20:57;15.43;;;8.30;;
80111;SDS011;69421;51.062;3.728;2023-06-22T05:23:23;17.30;;;7.72;;
80111;SDS011;69421;51.062;3.728;2023-06-22T05:25:49;14.20;;;7.47;;
80111;SDS011;69421;51.062;3.728;2023-06-22T05:28:14;14.55;;;6.70;;
80111;SDS011;69421;51.062;3.728;2023-06-22T05:30:40;13.27;;;6.22;;
80111;SDS011;69421;51.062;3.728;2023-06-22T05:33:06;9.60;;;5.43;;
80111;SDS011;69421;51.062;3.728;2023-06-22T05:35:32;14.70;;;6.25;;
80111;SDS011;69421;51.062;3.728;2023-06-22T05:37:57;10.73;;;5.90;;
80111;SDS011;69421;51.062;3.728;2023-06-22T05:40:23;13.57;;;7.22;;
80111;SDS011;69421;51.062;3.728;2023-06-22T05:42:48;12.75;;;7.00;;
80111;SDS011;69421;51.062;3.728;2023-06-22T05:45:14;11.50;;;6.80;;
80111;SDS011;69421;51.062;3.728;2023-06-22T05:47:40;13.60;;;6.25;;
80111;SDS011;69421;51.062;3.728;2023-06-22T05:50:05;14.77;;;6.32;;
80111;SDS011;69421;51.062;3.728;2023-06-22T05:52:33;13.50;;;8.13;;
80111;SDS011;69421;51.062;3.728;2023-06-22T05:54:59;19.33;;;7.85;;
80111;SDS011;69421;51.062;3.728;2023-06-22T05:57:25;15.45;;;8.05;;
80111;SDS011;69421;51.062;3.728;2023-06-22T05:59:50;12.02;;;7.70;;
80111;SDS011;69421;51.062;3.728;2023-06-22T06:02:16;14.00;;;9.18;;
80111;SDS011;69421;51.062;3.728;2023-06-22T06:04:42;18.60;;;8.10;;
80111;SDS011;69421;51.062;3.728;2023-06-22T06:07:08;15.02;;;7.85;;
80111;SDS011;69421;51.062;3.728;2023-06-22T06:09:33;17.50;;;8.63;;
80111;SDS011;69421;51.062;3.728;2023-06-22T06:11:59;19.55;;;8.27;;
80111;SDS011;69421;51.062;3.728;2023-06-22T06:14:25;12.73;;;7.35;;
80111;SDS011;69421;51.062;3.728;2023-06-22T06:16:50;12.80;;;8.40;;
80111;SDS011;69421;51.062;3.728;2023-06-22T06:19:16;13.80;;;9.25;;
80111;SDS011;69421;51.062;3.728;2023-06-22T06:21:41;19.27;;;9.40;;
80111;SDS011;69421;51.062;3.728;2023-06-22T06:24:07;11.93;;;9.30;;
80111;SDS011;69421;51.062;3.728;2023-06-22T06:26:33;16.58;;;9.38;;
80111;SDS011;69421;51.062;3.728;2023-06-22T06:29:00;17.08;;;9.55;;
80111;SDS011;69421;51.062;3.728;2023-06-22T06:31:27;12.77;;;9.05;;
80111;SDS011;69421;51.062;3.728;2023-06-22T06:33:53;16.02;;;11.10;;
80111;SDS011;69421;51.062;3.728;2023-06-22T06:36:19;13.05;;;9.68;;
80111;SDS011;69421;51.062;3.728;2023-06-22T06:38:45;14.55;;;10.38;;
80111;SDS011;69421;51.062;3.728;2023-06-22T06:41:15;15.35;;;9.77;;
80111;SDS011;69421;51.062;3.728;2023-06-22T06:43:41;14.00;;;10.02;;
80111;SDS011;69421;51.062;3.728;2023-06-22T06:46:09;14.05;;;10.98;;
80111;SDS011;69421;51.062;3.728;2023-06-22T06:48:35;18.42;;;12.35;;
80111;SDS011;69421;51.062;3.728;2023-06-22T06:51:01;19.92;;;12.25;;
80111;SDS011;69421;51.062;3.728;2023-06-22T06:53:27;16.83;;;10.63;;
80111;SDS011;69421;51.062;3.728;2023-06-22T06:55:53;18.50;;;13.45;;
80111;SDS011;69421;51.062;3.728;2023-06-22T06:58:19;18.88;;;11.15;;
80111;SDS011;69421;51.062;3.728;2023-06-22T07:00:45;16.80;;;11.15;;
80111;SDS011;69421;51.062;3.728;2023-06-22T07:03:10;19.40;;;11.63;;
80111;SDS011;69421;51.062;3.728;2023-06-22T07:05:36;17.02;;;11.70;;
80111;SDS011;69421;51.062;3.728;2023-06-22T07:08:02;15.55;;;11.38;;
80111;SDS011;69421;51.062;3.728;2023-06-22T07:10:28;18.02;;;12.32;;
80111;SDS011;69421;51.062;3.728;2023-06-22T07:12:54;21.25;;;12.90;;
80111;SDS011;69421;51.062;3.728;2023-06-22T07:15:20;15.82;;;11.25;;
80111;SDS011;69421;51.062;3.728;2023-06-22T07:17:45;18.40;;;12.03;;
80111;SDS011;69421;51.062;3.728;2023-06-22T07:20:11;15.80;;;11.00;;
80111;SDS011;69421;51.062;3.728;2023-06-22T07:22:41;16.20;;;12.70;;
80111;SDS011;69421;51.062;3.728;2023-06-22T07:25:07;16.23;;;11.80;;
80111;SDS011;69421;51.062;3.728;2023-06-22T07:27:39;17.45;;;11.70;;
80111;SDS011;69421;51.062;3.728;2023-06-22T07:30:09;15.15;;;11.35;;
80111;SDS011;69421;51.062;3.728;2023-06-22T07:32:35;17.77;;;12.93;;
80111;SDS011;69421;51.062;3.728;2023-06-22T07:35:01;17.08;;;12.27;;
80111;SDS011;69421;51.062;3.728;2023-06-22T07:37:30;16.70;;;11.82;;
80111;SDS011;69421;51.062;3.728;2023-06-22T07:39:56;15.10;;;11.50;;
80111;SDS011;69421;51.062;3.728;2023-06-22T07:42:26;16.60;;;12.05;;
80111;SDS011;69421;51.062;3.728;2023-06-22T07:44:52;16.33;;;12.23;;
80111;SDS011;69421;51.062;3.728;2023-06-22T07:47:18;16.23;;;11.25;;
80111;SDS011;69421;51.062;3.728;2023-06-22T07:49:44;17.15;;;12.05;;
80111;SDS011;69421;51.062;3.728;2023-06-22T07:52:10;12.98;;;10.80;;
80111;SDS011;69421;51.062;3.728;2023-06-22T07:54:36;15.32;;;11.68;;
80111;SDS011;69421;51.062;3.728;2023-06-22T07:57:02;13.43;;;10.27;;
80111;SDS011;69421;51.062;3.728;2023-06-22T07:59:28;14.90;;;10.55;;
80111;SDS011;69421;51.062;3.728;2023-06-22T08:01:54;14.25;;;10.48;;
80111;SDS011;69421;51.062;3.728;2023-06-22T08:04:20;13.63;;;9.93;;
80111;SDS011;69421;51.062;3.728;2023-06-22T08:06:46;18.13;;;10.95;;
80111;SDS011;69421;51.062;3.728;2023-06-22T08:09:12;14.80;;;11.27;;
80111;SDS011;69421;51.062;3.728;2023-06-22T08:11:37;14.55;;;10.65;;
80111;SDS011;69421;51.062;3.728;2023-06-22T08:14:03;15.15;;;10.73;;
80111;SDS011;69421;51.062;3.728;2023-06-22T08:16:28;16.37;;;10.87;;
80111;SDS011;69421;51.062;3.728;2023-06-22T08:18:54;14.85;;;10.27;;
80111;SDS011;69421;51.062;3.728;2023-06-22T08:21:21;16.90;;;9.82;;
80111;SDS011;69421;51.062;3.728;2023-06-22T08:23:47;15.10;;;9.80;;
80111;SDS011;69421;51.062;3.728;2023-06-22T08:26:16;14.27;;;9.98;;
80111;SDS011;69421;51.062;3.728;2023-06-22T08:28:41;16.20;;;10.35;;
80111;SDS011;69421;51.062;3.728;2023-06-22T08:31:07;14.75;;;10.35;;
80111;SDS011;69421;51.062;3.728;2023-06-22T08:33:33;15.57;;;9.95;;
80111;SDS011;69421;51.062;3.728;2023-06-22T08:35:59;16.65;;;11.45;;
80111;SDS011;69421;51.062;3.728;2023-06-22T08:38:25;15.05;;;10.90;;
80111;SDS011;69421;51.062;3.728;2023-06-22T08:40:51;14.27;;;10.35;;
80111;SDS011;69421;51.062;3.728;2023-06-22T08:43:16;15.53;;;10.83;;
80111;SDS011;69421;51.062;3.728;2023-06-22T08:45:41;12.65;;;10.90;;
80111;SDS011;69421;51.062;3.728;2023-06-22T08:48:07;16.90;;;12.10;;
80111;SDS011;69421;51.062;3.728;2023-06-22T08:50:32;20.50;;;14.13;;
80111;SDS011;69421;51.062;3.728;2023-06-22T08:53:24;14.20;;;10.82;;
80111;SDS011;69421;51.062;3.728;2023-06-22T08:55:49;17.83;;;11.43;;
80111;SDS011;69421;51.062;3.728;2023-06-22T08:58:15;18.83;;;11.93;;
80111;SDS011;69421;51.062;3.728;2023-06-22T09:00:41;19.83;;;13.00;;
80111;SDS011;69421;51.062;3.728;2023-06-22T09:03:06;17.48;;;13.50;;
80111;SDS011;69421;51.062;3.728;2023-06-22T09:05:33;17.92;;;13.38;;
80111;SDS011;69421;51.062;3.728;2023-06-22T09:07:58;17.00;;;12.77;;
80111;SDS011;69421;51.062;3.728;2023-06-22T09:10:24;18.98;;;13.25;;
80111;SDS011;69421;51.062;3.728;2023-06-22T09:12:50;26.42;;;12.57;;
80111;SDS011;69421;51.062;3.728;2023-06-22T09:15:16;18.48;;;12.43;;
80111;SDS011;69421;51.062;3.728;2023-06-22T09:17:42;14.32;;;10.65;;
80111;SDS011;69421;51.062;3.728;2023-06-22T09:20:11;13.98;;;9.95;;
80111;SDS011;69421;51.062;3.728;2023-06-22T09:22:37;15.07;;;10.25;;
80111;SDS011;69421;51.062;3.728;2023-06-22T09:25:04;15.43;;;9.32;;
80111;SDS011;69421;51.062;3.728;2023-06-22T09:27:30;16.27;;;10.52;;
80111;SDS011;69421;51.062;3.728;2023-06-22T09:29:56;17.30;;;10.35;;
80111;SDS011;69421;51.062;3.728;2023-06-22T09:32:23;16.73;;;9.45;;
80111;SDS011;69421;51.062;3.728;2023-06-22T09:34:49;14.63;;;10.32;;
80111;SDS011;69421;51.062;3.728;2023-06-22T09:37:15;15.05;;;8.90;;
80111;SDS011;69421;51.062;3.728;2023-06-22T09:39:41;17.05;;;8.45;;
80111;SDS011;69421;51.062;3.728;2023-06-22T09:42:06;18.73;;;9.67;;
80111;SDS011;69421;51.062;3.728;2023-06-22T09:44:32;16.88;;;11.10;;
80111;SDS011;69421;51.062;3.728;2023-06-22T09:46:58;18.25;;;10.00;;
80111;SDS011;69421;51.062;3.728;2023-06-22T09:49:23;19.77;;;10.70;;
80111;SDS011;69421;51.062;3.728;2023-06-22T09:51:49;16.77;;;10.27;;
80111;SDS011;69421;51.062;3.728;2023-06-22T09:54:16;15.57;;;10.30;;
80111;SDS011;69421;51.062;3.728;2023-06-22T09:56:41;17.80;;;9.68;;
80111;SDS011;69421;51.062;3.728;2023-06-22T09:59:07;17.45;;;10.77;;
80111;SDS011;69421;51.062;3.728;2023-06-22T10:01:33;22.98;;;12.13;;
80111;SDS011;69421;51.062;3.728;2023-06-22T10:03:58;20.73;;;11.80;;
80111;SDS011;69421;51.062;3.728;2023-06-22T10:06:24;16.48;;;10.43;;
80111;SDS011;69421;51.062;3.728;2023-06-22T10:08:50;16.77;;;9.40;;
80111;SDS011;69421;51.062;3.728;2023-06-22T10:11:16;13.10;;;8.15;;
80111;SDS011;69421;51.062;3.728;2023-06-22T10:13:41;11.73;;;8.38;;
80111;SDS011;69421;51.062;3.728;2023-06-22T10:16:07;16.60;;;9.18;;
80111;SDS011;69421;51.062;3.728;2023-06-22T10:18:33;16.05;;;8.50;;
80111;SDS011;69421;51.062;3.728;2023-06-22T10:20:58;15.15;;;9.55;;
80111;SDS011;69421;51.062;3.728;2023-06-22T10:23:24;13.13;;;8.63;;
80111;SDS011;69421;51.062;3.728;2023-06-22T10:25:50;15.77;;;9.02;;
80111;SDS011;69421;51.062;3.728;2023-06-22T10:28:15;16.65;;;9.82;;
80111;SDS011;69421;51.062;3.728;2023-06-22T10:30:41;14.40;;;8.70;;
80111;SDS011;69421;51.062;3.728;2023-06-22T10:33:08;17.98;;;10.55;;
80111;SDS011;69421;51.062;3.728;2023-06-22T10:35:37;13.88;;;10.55;;
80111;SDS011;69421;51.062;3.728;2023-06-22T10:38:03;15.93;;;10.98;;
80111;SDS011;69421;51.062;3.728;2023-06-22T10:40:29;13.82;;;10.65;;
80111;SDS011;69421;51.062;3.728;2023-06-22T10:42:55;21.33;;;11.13;;
80111;SDS011;69421;51.062;3.728;2023-06-22T10:45:23;17.60;;;11.35;;
80111;SDS011;69421;51.062;3.728;2023-06-22T10:47:49;20.55;;;12.35;;
80111;SDS011;69421;51.062;3.728;2023-06-22T10:50:22;16.50;;;11.57;;
80111;SDS011;69421;51.062;3.728;2023-06-22T10:52:49;24.15;;;14.23;;
80111;SDS011;69421;51.062;3.728;2023-06-22T10:55:15;22.13;;;13.00;;
80111;SDS011;69421;51.062;3.728;2023-06-22T10:57:40;17.30;;;11.60;;
80111;SDS011;69421;51.062;3.728;2023-06-22T11:00:09;16.00;;;10.57;;
80111;SDS011;69421;51.062;3.728;2023-06-22T11:02:36;15.10;;;8.48;;
80111;SDS011;69421;51.062;3.728;2023-06-22T11:05:02;10.40;;;7.50;;
80111;SDS011;69421;51.062;3.728;2023-06-22T11:07:28;13.02;;;8.20;;
80111;SDS011;69421;51.062;3.728;2023-06-22T11:09:54;11.10;;;8.13;;
80111;SDS011;69421;51.062;3.728;2023-06-22T11:12:20;11.23;;;7.97;;
80111;SDS011;69421;51.062;3.728;2023-06-22T11:14:46;12.50;;;8.82;;
80111;SDS011;69421;51.062;3.728;2023-06-22T11:17:12;14.50;;;9.68;;
80111;SDS011;69421;51.062;3.728;2023-06-22T11:19:37;15.23;;;10.15;;
80111;SDS011;69421;51.062;3.728;2023-06-22T11:22:03;14.27;;;9.95;;
80111;SDS011;69421;51.062;3.728;2023-06-22T11:24:29;14.63;;;10.15;;
80111;SDS011;69421;51.062;3.728;2023-06-22T11:26:54;14.43;;;8.25;;
80111;SDS011;69421;51.062;3.728;2023-06-22T11:29:20;10.77;;;7.93;;
80111;SDS011;69421;51.062;3.728;2023-06-22T11:31:46;12.00;;;7.50;;
80111;SDS011;69421;51.062;3.728;2023-06-22T11:34:11;9.98;;;6.25;;
80111;SDS011;69421;51.062;3.728;2023-06-22T11:36:37;8.70;;;5.78;;
80111;SDS011;69421;51.062;3.728;2023-06-22T11:39:03;7.20;;;4.50;;
80111;SDS011;69421;51.062;3.728;2023-06-22T11:41:30;10.15;;;4.70;;
80111;SDS011;69421;51.062;3.728;2023-06-22T11:43:55;6.55;;;4.32;;
80111;SDS011;69421;51.062;3.728;2023-06-22T11:46:21;8.48;;;4.18;;
80111;SDS011;69421;51.062;3.728;2023-06-22T11:48:47;7.53;;;3.78;;
80111;SDS011;69421;51.062;3.728;2023-06-22T11:51:12;9.73;;;3.78;;
80111;SDS011;69421;51.062;3.728;2023-06-22T11:53:38;9.48;;;4.85;;
80111;SDS011;69421;51.062;3.728;2023-06-22T11:56:04;8.13;;;4.00;;
80111;SDS011;69421;51.062;3.728;2023-06-22T11:58:29;6.43;;;3.95;;
80111;SDS011;69421;51.062;3.728;2023-06-22T12:00:55;11.20;;;5.22;;
80111;SDS011;69421;51.062;3.728;2023-06-22T12:03:21;10.43;;;4.95;;
80111;SDS011;69421;51.062;3.728;2023-06-22T12:05:47;10.27;;;4.40;;
80111;SDS011;69421;51.062;3.728;2023-06-22T12:08:13;9.20;;;5.55;;
80111;SDS011;69421;51.062;3.728;2023-06-22T12:10:39;10.32;;;5.50;;
80111;SDS011;69421;51.062;3.728;2023-06-22T12:13:04;10.70;;;6.57;;
80111;SDS011;69421;51.062;3.728;2023-06-22T12:15:33;11.50;;;6.43;;
80111;SDS011;69421;51.062;3.728;2023-06-22T12:20:24;10.45;;;7.15;;
80111;SDS011;69421;51.062;3.728;2023-06-22T12:22:52;9.35;;;5.68;;
80111;SDS011;69421;51.062;3.728;2023-06-22T12:25:19;9.13;;;5.38;;
80111;SDS011;69421;51.062;3.728;2023-06-22T12:27:44;10.23;;;5.18;;
80111;SDS011;69421;51.062;3.728;2023-06-22T12:30:12;7.85;;;5.20;;
80111;SDS011;69421;51.062;3.728;2023-06-22T12:32:38;12.18;;;5.57;;
80111;SDS011;69421;51.062;3.728;2023-06-22T12:35:04;10.55;;;6.32;;
80111;SDS011;69421;51.062;3.728;2023-06-22T12:37:30;10.43;;;6.75;;
80111;SDS011;69421;51.062;3.728;2023-06-22T12:39:59;14.88;;;8.65;;
80111;SDS011;69421;51.062;3.728;2023-06-22T12:42:29;15.20;;;8.38;;
80111;SDS011;69421;51.062;3.728;2023-06-22T12:44:55;14.35;;;8.85;;
80111;SDS011;69421;51.062;3.728;2023-06-22T12:47:21;16.23;;;10.68;;
80111;SDS011;69421;51.062;3.728;2023-06-22T12:49:46;20.40;;;11.38;;
80111;SDS011;69421;51.062;3.728;2023-06-22T12:52:18;19.65;;;11.63;;
80111;SDS011;69421;51.062;3.728;2023-06-22T12:54:49;21.13;;;12.43;;
80111;SDS011;69421;51.062;3.728;2023-06-22T12:57:17;20.77;;;14.07;;
80111;SDS011;69421;51.062;3.728;2023-06-22T12:59:44;22.58;;;14.15;;
80111;SDS011;69421;51.062;3.728;2023-06-22T13:02:13;24.60;;;14.45;;
80111;SDS011;69421;51.062;3.728;2023-06-22T13:04:42;26.27;;;15.90;;
80111;SDS011;69421;51.062;3.728;2023-06-22T13:07:08;29.45;;;16.42;;
80111;SDS011;69421;51.062;3.728;2023-06-22T13:09:35;30.77;;;17.33;;
80111;SDS011;69421;51.062;3.728;2023-06-22T13:12:01;28.75;;;16.85;;
80111;SDS011;69421;51.062;3.728;2023-06-22T13:14:27;23.75;;;15.60;;
80111;SDS011;69421;51.062;3.728;2023-06-22T13:16:53;23.80;;;15.43;;
80111;SDS011;69421;51.062;3.728;2023-06-22T13:19:18;25.90;;;15.90;;
80111;SDS011;69421;51.062;3.728;2023-06-22T13:21:44;24.50;;;14.18;;
80111;SDS011;69421;51.062;3.728;2023-06-22T13:24:10;28.38;;;17.90;;
80111;SDS011;69421;51.062;3.728;2023-06-22T13:26:35;24.38;;;15.80;;
80111;SDS011;69421;51.062;3.728;2023-06-22T13:29:01;22.67;;;14.68;;
80111;SDS011;69421;51.062;3.728;2023-06-22T13:31:27;23.33;;;14.00;;
80111;SDS011;69421;51.062;3.728;2023-06-22T13:33:52;23.38;;;14.43;;
80111;SDS011;69421;51.062;3.728;2023-06-22T13:36:18;20.95;;;12.32;;
80111;SDS011;69421;51.062;3.728;2023-06-22T13:38:44;22.73;;;14.13;;
80111;SDS011;69421;51.062;3.728;2023-06-22T13:41:10;21.88;;;11.90;;
80111;SDS011;69421;51.062;3.728;2023-06-22T13:43:35;17.60;;;11.93;;
80111;SDS011;69421;51.062;3.728;2023-06-22T13:46:01;17.63;;;11.07;;
80111;SDS011;69421;51.062;3.728;2023-06-22T13:48:27;18.95;;;11.40;;
80111;SDS011;69421;51.062;3.728;2023-06-22T13:50:53;20.10;;;13.13;;
80111;SDS011;69421;51.062;3.728;2023-06-22T13:53:19;23.70;;;12.10;;
80111;SDS011;69421;51.062;3.728;2023-06-22T13:55:45;20.83;;;13.07;;
80111;SDS011;69421;51.062;3.728;2023-06-22T13:58:12;17.33;;;12.02;;
80111;SDS011;69421;51.062;3.728;2023-06-22T14:00:38;16.55;;;11.90;;
80111;SDS011;69421;51.062;3.728;2023-06-22T14:03:07;18.80;;;12.63;;
80111;SDS011;69421;51.062;3.728;2023-06-22T14:05:33;22.13;;;12.88;;
80111;SDS011;69421;51.062;3.728;2023-06-22T14:07:59;19.27;;;14.25;;
80111;SDS011;69421;51.062;3.728;2023-06-22T14:10:24;19.65;;;14.27;;
80111;SDS011;69421;51.062;3.728;2023-06-22T14:12:50;21.52;;;13.88;;
80111;SDS011;69421;51.062;3.728;2023-06-22T14:15:15;20.75;;;14.07;;
80111;SDS011;69421;51.062;3.728;2023-06-22T14:17:41;23.73;;;14.73;;
80111;SDS011;69421;51.062;3.728;2023-06-22T14:20:07;23.52;;;15.13;;
80111;SDS011;69421;51.062;3.728;2023-06-22T14:22:33;18.90;;;14.65;;
80111;SDS011;69421;51.062;3.728;2023-06-22T14:25:00;18.65;;;13.43;;
80111;SDS011;69421;51.062;3.728;2023-06-22T14:27:26;19.02;;;13.18;;
80111;SDS011;69421;51.062;3.728;2023-06-22T14:29:52;21.10;;;15.02;;
80111;SDS011;69421;51.062;3.728;2023-06-22T14:32:18;20.88;;;14.35;;
80111;SDS011;69421;51.062;3.728;2023-06-22T14:34:43;20.40;;;13.43;;
80111;SDS011;69421;51.062;3.728;2023-06-22T14:37:09;20.73;;;12.95;;
80111;SDS011;69421;51.062;3.728;2023-06-22T14:39:35;16.25;;;12.60;;
80111;SDS011;69421;51.062;3.728;2023-06-22T14:42:01;21.27;;;15.60;;
80111;SDS011;69421;51.062;3.728;2023-06-22T14:44:28;23.17;;;15.07;;
80111;SDS011;69421;51.062;3.728;2023-06-22T14:46:55;23.65;;;16.48;;
80111;SDS011;69421;51.062;3.728;2023-06-22T14:49:21;21.05;;;14.95;;